createdAt,value
2022-11-03T00:02:02.025Z,99.90
2022-11-03T00:04:28.958Z,99.90
2022-11-03T00:06:56.302Z,99.90
2022-11-03T00:09:26.849Z,99.90
2022-11-03T00:11:53.689Z,99.90
2022-11-03T00:14:20.957Z,99.90
2022-11-03T00:16:48.422Z,99.90
2022-11-03T00:19:16.973Z,99.90
2022-11-03T00:21:45.307Z,99.90
2022-11-03T00:24:13.363Z,99.90
2022-11-03T00:26:40.325Z,99.90
2022-11-03T00:29:12.452Z,99.90
2022-11-03T00:31:43.311Z,99.90
2022-11-03T00:34:11.747Z,99.90
2022-11-03T00:36:43.789Z,99.90
2022-11-03T00:39:12.687Z,99.90
2022-11-03T00:41:40.467Z,99.90
2022-11-03T00:44:10.226Z,99.90
2022-11-03T00:46:37.187Z,99.90
2022-11-03T00:49:05.634Z,99.90
2022-11-03T00:51:34.850Z,99.90
2022-11-03T00:54:05.190Z,99.90
2022-11-03T00:56:37.786Z,99.90
2022-11-03T00:59:08.811Z,99.90
2022-11-03T01:01:47.999Z,99.90
2022-11-03T01:04:36.016Z,99.90
2022-11-03T01:07:05.635Z,99.90
2022-11-03T01:09:43.247Z,99.90
2022-11-03T01:12:19.260Z,99.90
2022-11-03T01:14:51.507Z,99.90
2022-11-03T01:17:24.940Z,99.90
2022-11-03T01:19:53.307Z,99.90
2022-11-03T01:22:23.909Z,99.90
2022-11-03T01:24:51.891Z,99.90
2022-11-03T01:27:22.519Z,99.90
2022-11-03T01:29:49.452Z,99.90
2022-11-03T01:32:16.582Z,99.90
2022-11-03T01:34:43.451Z,99.90
2022-11-03T01:37:10.386Z,99.90
2022-11-03T01:39:37.247Z,99.90
2022-11-03T01:42:04.268Z,99.90
2022-11-03T01:44:39.507Z,99.90
2022-11-03T01:47:33.943Z,99.90
2022-11-03T01:50:11.511Z,99.90
2022-11-03T01:52:59.396Z,99.90
2022-11-03T01:55:37.183Z,99.90
2022-11-03T01:58:18.955Z,99.90
2022-11-03T02:00:52.454Z,99.90
2022-11-03T02:03:22.199Z,99.90
2022-11-03T02:05:52.665Z,99.90
2022-11-03T02:08:48.347Z,99.90
2022-11-03T02:11:34.304Z,99.90
2022-11-03T02:14:01.381Z,99.90
2022-11-03T02:16:33.005Z,99.90
2022-11-03T02:19:04.206Z,99.90
2022-11-03T02:22:13.095Z,99.90
2022-11-03T02:25:11.126Z,99.90
2022-11-03T02:27:38.093Z,99.90
2022-11-03T02:30:05.912Z,99.90
2022-11-03T02:32:58.607Z,99.90
2022-11-03T02:35:56.355Z,99.90
2022-11-03T02:38:30.457Z,99.90
2022-11-03T02:41:05.209Z,99.90
2022-11-03T02:43:32.500Z,99.90
2022-11-03T02:46:04.009Z,99.90
2022-11-03T02:48:31.821Z,99.90
2022-11-03T02:50:58.663Z,99.90
2022-11-03T02:53:30.689Z,99.90
2022-11-03T02:56:20.641Z,99.90
2022-11-03T02:59:05.800Z,99.90
2022-11-03T03:01:47.307Z,99.90
2022-11-03T03:04:57.490Z,99.90
2022-11-03T03:07:33.508Z,99.90
2022-11-03T03:10:21.575Z,99.90
2022-11-03T03:12:57.054Z,99.90
2022-11-03T03:15:54.125Z,99.90
2022-11-03T03:18:48.820Z,99.90
2022-11-03T03:21:25.857Z,99.90
2022-11-03T03:24:14.947Z,99.90
2022-11-03T03:26:49.591Z,99.90
2022-11-03T03:29:31.673Z,99.90
2022-11-03T03:32:08.945Z,99.90
2022-11-03T03:34:43.385Z,99.90
2022-11-03T03:37:16.366Z,99.90
2022-11-03T03:39:51.527Z,99.90
2022-11-03T03:42:26.523Z,99.90
2022-11-03T03:44:56.023Z,99.90
2022-11-03T03:47:31.222Z,99.90
2022-11-03T03:49:59.150Z,99.90
2022-11-03T03:52:27.599Z,99.90
2022-11-03T03:54:56.383Z,99.90
2022-11-03T03:57:27.423Z,99.90
2022-11-03T03:59:54.289Z,99.90
2022-11-03T04:02:21.232Z,99.90
2022-11-03T04:04:48.211Z,99.90
2022-11-03T04:07:36.702Z,99.90
2022-11-03T04:10:07.026Z,99.90
2022-11-03T04:13:03.138Z,99.90
2022-11-03T04:15:50.908Z,99.90
2022-11-03T04:18:39.843Z,99.90
2022-11-03T04:21:31.722Z,99.90
2022-11-03T04:24:00.350Z,99.90
2022-11-03T04:26:29.543Z,99.90
2022-11-03T04:28:58.009Z,99.90
2022-11-03T04:31:27.420Z,99.90
2022-11-03T04:33:54.247Z,99.90
2022-11-03T04:36:26.334Z,99.90
2022-11-03T04:38:53.507Z,99.90
2022-11-03T04:41:28.462Z,99.90
2022-11-03T04:43:57.092Z,99.90
2022-11-03T04:46:29.063Z,99.90
2022-11-03T04:49:01.854Z,99.90
2022-11-03T04:51:34.800Z,99.90
2022-11-03T04:54:15.418Z,99.90
2022-11-03T04:56:42.468Z,99.90
2022-11-03T04:59:14.782Z,99.90
2022-11-03T05:01:44.944Z,99.90
2022-11-03T05:04:18.204Z,99.90
2022-11-03T05:06:53.458Z,99.90
2022-11-03T05:09:30.216Z,99.90
2022-11-03T05:11:57.216Z,99.90
2022-11-03T05:14:31.611Z,99.90
2022-11-03T05:17:02.272Z,99.90
2022-11-03T05:19:38.364Z,99.90
2022-11-03T05:22:12.537Z,99.90
2022-11-03T05:24:39.459Z,99.90
2022-11-03T05:27:19.140Z,99.90
2022-11-03T05:29:47.833Z,99.90
2022-11-03T05:32:29.924Z,99.90
2022-11-03T05:34:57.944Z,99.90
2022-11-03T05:37:35.746Z,99.90
2022-11-03T05:40:24.354Z,99.90
2022-11-03T05:43:02.212Z,99.90
2022-11-03T05:45:37.541Z,99.90
2022-11-03T05:48:33.057Z,99.90
2022-11-03T05:51:21.314Z,99.90
2022-11-03T05:53:58.089Z,99.90
2022-11-03T05:56:25.826Z,99.90
2022-11-03T05:58:56.730Z,99.90
2022-11-03T06:01:39.327Z,99.90
2022-11-03T06:04:38.578Z,99.90
2022-11-03T06:07:31.579Z,99.90
2022-11-03T06:09:59.008Z,99.90
2022-11-03T06:12:26.294Z,99.90
2022-11-03T06:14:53.565Z,99.90
2022-11-03T06:17:28.499Z,99.90
2022-11-03T06:20:00.449Z,99.90
2022-11-03T06:22:38.115Z,99.90
2022-11-03T06:25:27.931Z,99.90
2022-11-03T06:28:03.798Z,99.90
2022-11-03T06:30:38.944Z,99.90
2022-11-03T06:33:27.733Z,99.90
2022-11-03T06:36:03.368Z,99.90
2022-11-03T06:38:35.203Z,99.90
2022-11-03T06:41:02.049Z,99.90
2022-11-03T06:43:42.790Z,99.90
2022-11-03T06:46:22.111Z,99.90
2022-11-03T06:48:49.816Z,99.90
2022-11-03T06:51:25.577Z,99.90
2022-11-03T06:53:58.698Z,99.90
2022-11-03T06:56:35.074Z,99.90
2022-11-03T06:59:01.969Z,99.90
2022-11-03T07:01:35.410Z,99.90
2022-11-03T07:04:29.456Z,99.90
2022-11-03T07:07:03.012Z,99.90
2022-11-03T07:09:29.908Z,99.90
2022-11-03T07:12:00.728Z,99.90
2022-11-03T07:14:31.172Z,99.90
2022-11-03T07:17:06.962Z,99.90
2022-11-03T07:19:45.660Z,99.90
2022-11-03T07:22:27.139Z,99.90
2022-11-03T07:25:03.729Z,99.90
2022-11-03T07:27:38.390Z,99.90
2022-11-03T07:30:24.630Z,99.90
2022-11-03T07:33:00.526Z,99.90
2022-11-03T07:36:08.441Z,99.90
2022-11-03T07:38:27.865Z,99.90
2022-11-03T07:40:59.897Z,99.90
2022-11-03T07:43:35.818Z,99.90
2022-11-03T07:46:05.958Z,99.90
2022-11-03T07:48:47.803Z,99.90
2022-11-03T07:51:38.468Z,99.90
2022-11-03T07:54:32.468Z,99.90
2022-11-03T07:57:21.979Z,99.90
2022-11-03T07:59:56.699Z,99.90
2022-11-03T08:02:57.884Z,99.90
2022-11-03T08:05:24.754Z,99.90
2022-11-03T08:07:51.621Z,99.90
2022-11-03T08:10:18.525Z,99.90
2022-11-03T08:12:45.363Z,99.90
2022-11-03T08:15:12.223Z,99.90
2022-11-03T08:17:39.075Z,99.90
2022-11-03T08:20:06.856Z,99.90
2022-11-03T08:22:33.876Z,99.90
2022-11-03T08:25:00.712Z,97.50
2022-11-03T08:27:27.605Z,96.60
2022-11-03T08:29:54.472Z,96.00
2022-11-03T08:32:21.325Z,94.90
2022-11-03T08:34:48.152Z,93.50
2022-11-03T08:37:14.995Z,93.40
2022-11-03T08:39:41.828Z,91.60
2022-11-03T08:42:08.658Z,90.40
2022-11-03T08:44:35.493Z,89.90
2022-11-03T08:47:02.348Z,89.70
2022-11-03T08:49:29.221Z,89.90
2022-11-03T08:51:56.144Z,88.90
2022-11-03T08:54:22.997Z,87.40
2022-11-03T08:56:49.933Z,88.40
2022-11-03T08:59:18.045Z,87.70
2022-11-03T09:03:36.427Z,84.60
2022-11-03T09:06:03.337Z,86.00
2022-11-03T09:11:17.120Z,85.60
2022-11-03T09:13:43.948Z,86.70
2022-11-03T09:16:10.889Z,83.10
2022-11-03T09:18:37.934Z,84.90
2022-11-03T09:21:04.876Z,84.70
2022-11-03T09:23:31.701Z,83.50
2022-11-03T09:25:58.602Z,83.20
2022-11-03T09:28:25.431Z,83.10
2022-11-03T09:30:52.358Z,83.00
2022-11-03T09:33:19.253Z,81.50
2022-11-03T09:35:46.121Z,81.70
2022-11-03T09:38:12.966Z,81.40
2022-11-03T09:40:39.838Z,81.80
2022-11-03T09:43:07.504Z,81.70
2022-11-03T09:45:34.498Z,81.30
2022-11-03T09:48:02.251Z,82.50
2022-11-03T09:50:29.207Z,81.90
2022-11-03T09:52:57.409Z,81.90
2022-11-03T09:55:27.407Z,81.70
2022-11-03T09:58:12.569Z,81.40
2022-11-03T10:00:39.504Z,80.80
2022-11-03T10:03:11.321Z,79.10
2022-11-03T10:05:41.766Z,78.90
2022-11-03T10:08:22.883Z,80.70
2022-11-03T10:10:52.098Z,81.90
2022-11-03T10:13:36.002Z,81.80
2022-11-03T10:16:08.808Z,81.60
2022-11-03T10:18:37.949Z,80.00
2022-11-03T10:21:29.502Z,80.90
2022-11-03T10:23:56.471Z,80.20
2022-11-03T10:26:23.818Z,79.90
2022-11-03T10:29:09.529Z,80.10
2022-11-03T10:31:43.063Z,79.10
2022-11-03T10:34:37.506Z,77.90
2022-11-03T10:37:26.950Z,76.60
2022-11-03T10:39:58.366Z,74.30
2022-11-03T10:42:35.536Z,74.60
2022-11-03T10:45:21.729Z,72.60
2022-11-03T10:48:09.174Z,72.30
2022-11-03T10:50:37.576Z,72.10
2022-11-03T10:53:04.995Z,74.20
2022-11-03T10:55:32.271Z,73.90
2022-11-03T10:57:59.324Z,72.30
2022-11-03T11:00:26.206Z,71.40
2022-11-03T11:03:01.595Z,69.00
2022-11-03T11:05:28.655Z,68.40
2022-11-03T11:07:56.099Z,67.90
2022-11-03T11:10:28.155Z,66.10
2022-11-03T11:13:27.336Z,66.40
2022-11-03T11:16:01.514Z,64.80
2022-11-03T11:18:31.303Z,65.80
2022-11-03T11:21:21.225Z,66.10
2022-11-03T11:23:52.268Z,65.60
2022-11-03T11:26:33.176Z,65.40
2022-11-03T11:29:08.976Z,66.40
2022-11-03T11:31:44.288Z,67.50
2022-11-03T11:34:18.106Z,67.10
2022-11-03T11:37:07.571Z,67.00
2022-11-03T11:39:35.833Z,66.70
2022-11-03T11:42:18.639Z,67.30
2022-11-03T11:44:53.871Z,67.60
2022-11-03T11:47:47.496Z,68.40
2022-11-03T11:50:27.879Z,68.70
2022-11-03T11:53:18.353Z,69.80
2022-11-03T11:55:58.895Z,71.40
2022-11-03T11:58:42.506Z,73.20
2022-11-03T12:01:34.576Z,74.80
2022-11-03T12:04:22.665Z,75.10
2022-11-03T12:06:50.187Z,74.40
2022-11-03T12:09:25.117Z,73.70
2022-11-03T12:12:05.287Z,74.30
2022-11-03T12:14:39.576Z,75.30
2022-11-03T12:17:18.238Z,74.10
2022-11-03T12:19:54.404Z,73.50
2022-11-03T12:22:24.154Z,74.10
2022-11-03T12:25:02.873Z,74.10
2022-11-03T12:27:29.587Z,75.00
2022-11-03T12:30:19.709Z,76.80
2022-11-03T12:32:47.688Z,77.30
2022-11-03T12:35:15.309Z,78.10
2022-11-03T12:37:42.230Z,79.00
2022-11-03T12:40:13.850Z,79.90
2022-11-03T12:42:40.741Z,80.90
2022-11-03T12:45:08.791Z,81.50
2022-11-03T12:47:35.767Z,83.00
2022-11-03T12:50:03.053Z,84.40
2022-11-03T12:52:29.926Z,85.40
2022-11-03T12:54:57.038Z,86.70
2022-11-03T12:57:23.945Z,87.00
2022-11-03T12:59:52.206Z,87.80
2022-11-03T13:02:19.245Z,88.30
2022-11-03T13:04:46.195Z,89.60
2022-11-03T13:07:13.034Z,90.00
2022-11-03T13:09:39.976Z,90.00
2022-11-03T13:12:25.801Z,89.80
2022-11-03T13:14:52.643Z,90.00
2022-11-03T13:17:19.478Z,90.40
2022-11-03T13:19:46.337Z,90.40
2022-11-03T13:22:13.198Z,90.80
2022-11-03T13:24:40.086Z,90.90
2022-11-03T13:27:06.971Z,91.00
2022-11-03T13:29:35.690Z,91.10
2022-11-03T13:32:05.061Z,91.30
2022-11-03T13:34:32.100Z,91.70
2022-11-03T13:36:58.983Z,91.80
2022-11-03T13:39:25.950Z,92.00
2022-11-03T13:41:52.781Z,92.50
2022-11-03T13:44:19.891Z,92.50
2022-11-03T13:46:46.834Z,92.90
2022-11-03T13:52:00.667Z,93.70
2022-11-03T14:00:03.739Z,94.10
2022-11-03T14:05:19.122Z,94.50
2022-11-03T14:07:46.005Z,94.70
2022-11-03T14:10:12.930Z,94.80
2022-11-03T14:12:39.763Z,95.20
2022-11-03T14:15:11.788Z,95.60
2022-11-03T14:17:40.353Z,96.00
2022-11-03T14:20:12.999Z,96.40
2022-11-03T14:22:40.785Z,96.80
2022-11-03T14:25:08.811Z,96.90
2022-11-03T14:27:35.940Z,97.10
2022-11-03T14:30:04.593Z,97.70
2022-11-03T14:32:31.546Z,97.90
2022-11-03T14:34:58.555Z,98.30
2022-11-03T14:37:25.726Z,98.70
2022-11-03T14:39:52.792Z,99.10
2022-11-03T14:42:19.817Z,99.40
2022-11-03T14:44:47.900Z,99.80
2022-11-03T14:47:19.206Z,99.90
2022-11-03T14:49:46.392Z,99.90
2022-11-03T14:52:15.760Z,99.90
2022-11-03T14:54:43.767Z,99.90
2022-11-03T14:57:10.806Z,99.90
2022-11-03T14:59:37.962Z,99.90
2022-11-03T15:02:05.939Z,99.90
2022-11-03T15:04:33.435Z,99.90
2022-11-03T15:07:00.501Z,99.90
2022-11-03T15:09:27.435Z,99.90
2022-11-03T15:11:54.348Z,99.90
2022-11-03T15:14:21.297Z,99.90
2022-11-03T15:16:48.223Z,99.90
2022-11-03T15:19:15.377Z,99.90
2022-11-03T15:21:42.324Z,99.90
2022-11-03T15:26:56.330Z,99.90
2022-11-03T15:29:23.847Z,99.90
2022-11-03T15:31:50.761Z,99.90
2022-11-03T15:34:18.007Z,99.90
2022-11-03T15:36:45.148Z,99.90
2022-11-03T15:39:13.082Z,99.90
2022-11-03T15:41:40.221Z,99.90
2022-11-03T15:44:07.118Z,99.90
2022-11-03T15:46:35.924Z,99.90
2022-11-03T15:49:03.485Z,99.90
2022-11-03T15:51:30.579Z,99.90
2022-11-03T15:53:59.155Z,99.90
2022-11-03T15:56:30.370Z,99.90
2022-11-03T15:58:57.422Z,99.90
2022-11-03T16:01:24.557Z,99.90
2022-11-03T16:03:51.917Z,99.90
2022-11-03T16:06:18.851Z,99.90
2022-11-03T16:08:45.711Z,99.90
2022-11-03T16:11:12.672Z,99.90
2022-11-03T16:13:39.758Z,99.90
2022-11-03T16:16:07.008Z,99.90
2022-11-03T16:18:34.545Z,99.90
2022-11-03T16:21:01.486Z,99.90
2022-11-03T16:23:28.464Z,99.90
2022-11-03T16:25:55.446Z,99.90
2022-11-03T16:28:23.151Z,99.90
2022-11-03T16:30:54.303Z,99.90
2022-11-03T16:33:22.189Z,99.90
2022-11-03T16:35:49.570Z,99.90
2022-11-03T16:38:16.833Z,99.90
2022-11-03T16:40:43.900Z,99.90
2022-11-03T16:43:11.797Z,99.90
2022-11-03T16:45:38.779Z,99.90
2022-11-03T16:48:07.263Z,99.90
2022-11-03T16:50:35.028Z,99.90
2022-11-03T16:53:02.801Z,99.90
2022-11-03T16:55:29.760Z,99.90
2022-11-03T16:57:56.625Z,99.90
2022-11-03T17:00:24.175Z,99.90
2022-11-03T17:02:51.547Z,99.90
2022-11-03T17:05:20.601Z,99.90
2022-11-03T17:07:53.607Z,99.90
2022-11-03T17:10:27.068Z,99.90
2022-11-03T17:12:54.068Z,99.90
2022-11-03T17:15:21.129Z,99.90
2022-11-03T17:17:47.964Z,99.90
2022-11-03T17:20:15.130Z,99.90
2022-11-03T17:22:42.005Z,99.90
2022-11-03T17:25:11.808Z,99.90
2022-11-03T17:27:55.124Z,99.90
2022-11-03T17:30:27.212Z,99.90
2022-11-03T17:33:02.082Z,99.90
2022-11-03T17:35:39.628Z,99.90
2022-11-03T17:38:15.437Z,99.90
2022-11-03T17:40:46.653Z,99.90
2022-11-03T17:43:27.129Z,99.90
2022-11-03T17:45:54.677Z,99.90
2022-11-03T17:48:23.126Z,99.90
2022-11-03T17:50:55.194Z,99.90
2022-11-03T17:53:28.753Z,99.90
2022-11-03T17:56:28.014Z,99.90
2022-11-03T17:58:46.854Z,99.90
2022-11-03T18:01:24.761Z,99.90
2022-11-03T18:03:54.913Z,99.90
2022-11-03T18:06:22.320Z,99.90
2022-11-03T18:08:49.870Z,99.90
2022-11-03T18:11:48.675Z,99.90
2022-11-03T18:14:16.302Z,99.90
2022-11-03T18:16:43.148Z,99.90
2022-11-03T18:19:17.465Z,99.90
2022-11-03T18:21:45.162Z,99.90
2022-11-03T18:24:20.282Z,99.90
2022-11-03T18:26:47.539Z,99.90
2022-11-03T18:29:14.753Z,99.90
2022-11-03T18:31:47.311Z,99.90
2022-11-03T18:34:25.213Z,99.90
2022-11-03T18:36:52.911Z,99.90
2022-11-03T18:39:28.708Z,99.90
2022-11-03T18:41:55.926Z,99.90
2022-11-03T18:44:30.036Z,99.90
2022-11-03T18:46:58.482Z,99.90
2022-11-03T18:49:27.299Z,99.90
2022-11-03T18:52:11.089Z,99.90
2022-11-03T18:54:52.085Z,99.90
2022-11-03T18:57:25.449Z,99.90
2022-11-03T18:59:52.713Z,99.90
2022-11-03T19:02:26.107Z,99.90
2022-11-03T19:04:53.063Z,99.90
2022-11-03T19:07:30.305Z,99.90
2022-11-03T19:09:58.439Z,99.90
2022-11-03T19:12:25.401Z,99.90
2022-11-03T19:14:52.361Z,99.90
2022-11-03T19:17:23.882Z,99.90
2022-11-03T19:19:53.390Z,99.90
2022-11-03T19:22:23.306Z,99.90
2022-11-03T19:24:50.447Z,99.90
2022-11-03T19:27:27.461Z,99.90
2022-11-03T19:29:59.135Z,99.90
2022-11-03T19:32:36.910Z,99.90
2022-11-03T19:35:34.880Z,99.90
2022-11-03T19:38:15.468Z,99.90
2022-11-03T19:41:04.001Z,99.90
2022-11-03T19:43:34.966Z,99.90
2022-11-03T19:46:04.592Z,99.90
2022-11-03T19:48:35.463Z,99.90
2022-11-03T19:51:06.787Z,99.90
2022-11-03T19:53:33.907Z,99.90
2022-11-03T19:56:01.357Z,99.90
2022-11-03T19:58:29.627Z,99.90
2022-11-03T20:00:57.745Z,99.90
2022-11-03T20:03:25.384Z,99.90
2022-11-03T20:05:56.969Z,99.90
2022-11-03T20:08:29.413Z,99.90
2022-11-03T20:10:56.641Z,99.90
2022-11-03T20:13:33.003Z,99.90
2022-11-03T20:16:01.512Z,99.90
2022-11-03T20:18:29.018Z,99.90
2022-11-03T20:20:56.667Z,99.90
2022-11-03T20:23:32.794Z,99.90
2022-11-03T20:26:02.207Z,99.90
2022-11-03T20:28:34.989Z,99.90
2022-11-03T20:31:03.601Z,99.90
2022-11-03T20:33:31.155Z,99.90
2022-11-03T20:35:58.789Z,99.90
2022-11-03T20:38:28.773Z,99.90
2022-11-03T20:40:58.768Z,99.90
2022-11-03T20:43:39.091Z,99.90
2022-11-03T20:46:33.586Z,99.90
2022-11-03T20:49:00.584Z,99.90
2022-11-03T20:51:43.428Z,99.90
2022-11-03T20:54:21.243Z,99.90
2022-11-03T20:56:48.727Z,99.90
2022-11-03T20:59:18.248Z,99.90
2022-11-03T21:01:45.798Z,99.90
2022-11-03T21:04:16.899Z,99.90
2022-11-03T21:06:44.408Z,99.90
2022-11-03T21:09:18.294Z,99.90
2022-11-03T21:11:54.244Z,99.90
2022-11-03T21:14:30.582Z,99.90
2022-11-03T21:17:16.232Z,99.90
2022-11-03T21:19:58.355Z,99.90
2022-11-03T21:22:55.402Z,99.90
2022-11-03T21:25:24.523Z,99.90
2022-11-03T21:27:54.424Z,99.90
2022-11-03T21:30:23.119Z,99.90
2022-11-03T21:32:50.301Z,99.90
2022-11-03T21:35:21.904Z,99.90
2022-11-03T21:37:49.130Z,99.90
2022-11-03T21:40:16.466Z,99.90
2022-11-03T21:43:02.157Z,99.90
2022-11-03T21:45:29.079Z,99.90
2022-11-03T21:48:15.201Z,99.90
2022-11-03T21:50:43.931Z,99.90
2022-11-03T21:53:11.857Z,99.90
2022-11-03T21:55:39.848Z,99.90
2022-11-03T21:58:07.354Z,99.90
2022-11-03T22:00:34.921Z,99.90
2022-11-03T22:03:01.883Z,99.90
2022-11-03T22:05:29.341Z,99.90
2022-11-03T22:07:56.505Z,99.90
2022-11-03T22:10:25.027Z,99.90
2022-11-03T22:12:51.874Z,99.90
2022-11-03T22:15:37.366Z,99.90
2022-11-03T22:18:06.929Z,99.90
2022-11-03T22:20:55.187Z,99.90
2022-11-03T22:23:40.590Z,99.90
2022-11-03T22:26:34.618Z,99.90
2022-11-03T22:29:20.166Z,99.90
2022-11-03T22:31:47.269Z,99.90
2022-11-03T22:34:32.992Z,99.90
2022-11-03T22:37:00.284Z,99.90
2022-11-03T22:39:45.835Z,99.90
2022-11-03T22:42:31.888Z,99.90
2022-11-03T22:45:17.294Z,99.90
2022-11-03T22:47:44.317Z,99.90
2022-11-03T22:50:11.189Z,99.90
2022-11-03T22:52:38.073Z,99.90
2022-11-03T22:55:05.399Z,99.90
2022-11-03T22:57:32.263Z,99.90
2022-11-03T22:59:59.168Z,99.90
2022-11-03T23:02:26.143Z,99.90
2022-11-03T23:04:53.075Z,99.90
2022-11-03T23:07:19.960Z,99.90
2022-11-03T23:09:46.873Z,99.90
2022-11-03T23:12:13.881Z,99.90
2022-11-03T23:14:59.472Z,99.90
2022-11-03T23:17:46.280Z,99.90
2022-11-03T23:20:32.661Z,99.90
2022-11-03T23:22:59.504Z,99.90
2022-11-03T23:25:26.328Z,99.90
2022-11-03T23:27:53.437Z,99.90
2022-11-03T23:30:20.280Z,99.90
2022-11-03T23:32:47.134Z,99.90
2022-11-03T23:35:14.535Z,99.90
2022-11-03T23:37:41.477Z,99.90
2022-11-03T23:40:09.520Z,99.90
2022-11-03T23:42:36.369Z,99.90
2022-11-03T23:45:22.077Z,99.90
2022-11-03T23:48:07.981Z,99.90
2022-11-03T23:50:35.038Z,99.90
2022-11-03T23:53:01.880Z,99.90
2022-11-03T23:55:49.013Z,99.90
2022-11-03T23:58:18.897Z,99.90
